Terminal Aerodrome Forecast
Issued by NWS

Home | Current Version | Previous Version | Text Only | Print | Product List | Glossary On
Versions: 1 2 3 4 5 6 7 8 9 10 11 12 13 14 15 16 17 18 19 20 21 22 23 24 25 26 27 28 29 30 31
000
FTUS42 KCAE 020500 CCA
TAFCUB
TAF COR
KCUB 020555Z 0206/0306 00000KT P6SM VCSH OVC006
     FM020800 00000KT 5SM BR OVC003
     FM021500 04005KT P6SM BKN015 BKN040
     FM021900 01006KT P6SM VCSH SCT025 BKN050
     FM030200 VRB03KT P6SM OVC050=

USA.gov is the U.S. government's official web portal to all federal, state and local government web resources and services.